sensor_id;sensor_type;location;lat;lon;timestamp;P1;durP1;ratioP1;P2;durP2;ratioP2
36789;SDS011;22740;52.182;8.780;2023-05-25T00:02:24;14.63;;;6.05;;
36789;SDS011;22740;52.182;8.780;2023-05-25T00:08:27;11.02;;;5.93;;
36789;SDS011;22740;52.182;8.780;2023-05-25T00:14:30;10.20;;;5.60;;
36789;SDS011;22740;52.182;8.780;2023-05-25T00:20:31;12.23;;;6.30;;
36789;SDS011;22740;52.182;8.780;2023-05-25T00:26:33;11.77;;;6.35;;
36789;SDS011;22740;52.182;8.780;2023-05-25T00:32:36;10.18;;;6.00;;
36789;SDS011;22740;52.182;8.780;2023-05-25T00:38:38;9.38;;;5.60;;
36789;SDS011;22740;52.182;8.780;2023-05-25T00:44:40;13.23;;;5.25;;
36789;SDS011;22740;52.182;8.780;2023-05-25T00:50:42;12.55;;;6.10;;
36789;SDS011;22740;52.182;8.780;2023-05-25T00:56:52;13.15;;;6.63;;
36789;SDS011;22740;52.182;8.780;2023-05-25T01:02:57;12.93;;;6.72;;
36789;SDS011;22740;52.182;8.780;2023-05-25T01:09:02;12.63;;;6.10;;
36789;SDS011;22740;52.182;8.780;2023-05-25T01:15:05;18.73;;;7.43;;
36789;SDS011;22740;52.182;8.780;2023-05-25T01:21:26;10.00;;;5.83;;
36789;SDS011;22740;52.182;8.780;2023-05-25T01:27:54;13.93;;;5.93;;
36789;SDS011;22740;52.182;8.780;2023-05-25T01:34:00;14.93;;;6.13;;
36789;SDS011;22740;52.182;8.780;2023-05-25T01:40:03;15.63;;;5.68;;
36789;SDS011;22740;52.182;8.780;2023-05-25T01:46:23;10.45;;;5.15;;
36789;SDS011;22740;52.182;8.780;2023-05-25T01:52:38;11.93;;;5.57;;
36789;SDS011;22740;52.182;8.780;2023-05-25T01:58:44;7.05;;;4.57;;
36789;SDS011;22740;52.182;8.780;2023-05-25T02:04:48;12.18;;;5.57;;
36789;SDS011;22740;52.182;8.780;2023-05-25T02:10:51;7.57;;;4.80;;
36789;SDS011;22740;52.182;8.780;2023-05-25T02:16:52;11.10;;;5.38;;
36789;SDS011;22740;52.182;8.780;2023-05-25T02:22:54;13.63;;;6.07;;
36789;SDS011;22740;52.182;8.780;2023-05-25T02:28:56;11.30;;;6.13;;
36789;SDS011;22740;52.182;8.780;2023-05-25T02:34:58;9.73;;;5.10;;
36789;SDS011;22740;52.182;8.780;2023-05-25T02:41:00;10.32;;;5.63;;
36789;SDS011;22740;52.182;8.780;2023-05-25T02:47:02;17.58;;;6.65;;
36789;SDS011;22740;52.182;8.780;2023-05-25T02:53:04;16.10;;;6.15;;
36789;SDS011;22740;52.182;8.780;2023-05-25T02:59:06;13.60;;;7.00;;
36789;SDS011;22740;52.182;8.780;2023-05-25T03:05:09;10.40;;;6.05;;
36789;SDS011;22740;52.182;8.780;2023-05-25T03:11:11;13.95;;;6.18;;
36789;SDS011;22740;52.182;8.780;2023-05-25T03:17:13;13.85;;;6.25;;
36789;SDS011;22740;52.182;8.780;2023-05-25T03:23:15;12.05;;;5.72;;
36789;SDS011;22740;52.182;8.780;2023-05-25T03:29:17;9.30;;;5.88;;
36789;SDS011;22740;52.182;8.780;2023-05-25T03:35:18;12.05;;;6.32;;
36789;SDS011;22740;52.182;8.780;2023-05-25T03:41:20;12.95;;;6.50;;
36789;SDS011;22740;52.182;8.780;2023-05-25T03:47:22;8.65;;;5.65;;
36789;SDS011;22740;52.182;8.780;2023-05-25T03:53:24;13.30;;;6.63;;
36789;SDS011;22740;52.182;8.780;2023-05-25T03:59:26;12.68;;;7.50;;
36789;SDS011;22740;52.182;8.780;2023-05-25T04:05:28;18.67;;;8.90;;
36789;SDS011;22740;52.182;8.780;2023-05-25T04:11:30;18.20;;;8.77;;
36789;SDS011;22740;52.182;8.780;2023-05-25T04:17:32;14.25;;;8.75;;
36789;SDS011;22740;52.182;8.780;2023-05-25T04:23:36;19.30;;;9.77;;
36789;SDS011;22740;52.182;8.780;2023-05-25T04:29:39;16.88;;;9.30;;
36789;SDS011;22740;52.182;8.780;2023-05-25T04:35:42;18.45;;;9.25;;
36789;SDS011;22740;52.182;8.780;2023-05-25T04:41:45;13.98;;;9.07;;
36789;SDS011;22740;52.182;8.780;2023-05-25T04:47:48;15.70;;;8.65;;
36789;SDS011;22740;52.182;8.780;2023-05-25T04:53:50;13.23;;;7.40;;
36789;SDS011;22740;52.182;8.780;2023-05-25T04:59:52;16.13;;;9.23;;
36789;SDS011;22740;52.182;8.780;2023-05-25T05:05:54;14.85;;;8.27;;
36789;SDS011;22740;52.182;8.780;2023-05-25T05:11:57;30.38;;;10.77;;
36789;SDS011;22740;52.182;8.780;2023-05-25T05:17:58;23.35;;;11.25;;
36789;SDS011;22740;52.182;8.780;2023-05-25T05:24:00;10.93;;;7.13;;
36789;SDS011;22740;52.182;8.780;2023-05-25T05:30:02;15.40;;;8.25;;
36789;SDS011;22740;52.182;8.780;2023-05-25T05:36:05;20.35;;;9.93;;
36789;SDS011;22740;52.182;8.780;2023-05-25T05:42:07;16.20;;;9.43;;
36789;SDS011;22740;52.182;8.780;2023-05-25T05:48:09;18.77;;;10.23;;
36789;SDS011;22740;52.182;8.780;2023-05-25T05:54:11;17.52;;;9.38;;
36789;SDS011;22740;52.182;8.780;2023-05-25T06:00:13;20.63;;;9.80;;
36789;SDS011;22740;52.182;8.780;2023-05-25T06:06:16;19.80;;;9.95;;
36789;SDS011;22740;52.182;8.780;2023-05-25T06:12:18;18.25;;;10.27;;
36789;SDS011;22740;52.182;8.780;2023-05-25T06:18:20;16.02;;;9.18;;
36789;SDS011;22740;52.182;8.780;2023-05-25T06:24:22;11.02;;;7.80;;
36789;SDS011;22740;52.182;8.780;2023-05-25T06:30:24;15.18;;;8.15;;
36789;SDS011;22740;52.182;8.780;2023-05-25T06:36:26;15.25;;;8.90;;
36789;SDS011;22740;52.182;8.780;2023-05-25T06:42:27;14.15;;;9.52;;
36789;SDS011;22740;52.182;8.780;2023-05-25T06:48:29;17.70;;;8.63;;
36789;SDS011;22740;52.182;8.780;2023-05-25T06:54:31;19.67;;;7.88;;
36789;SDS011;22740;52.182;8.780;2023-05-25T07:00:33;22.08;;;8.55;;
36789;SDS011;22740;52.182;8.780;2023-05-25T07:06:35;14.88;;;7.78;;
36789;SDS011;22740;52.182;8.780;2023-05-25T07:12:37;16.35;;;8.30;;
36789;SDS011;22740;52.182;8.780;2023-05-25T07:18:39;20.40;;;9.32;;
36789;SDS011;22740;52.182;8.780;2023-05-25T07:24:42;20.67;;;9.00;;
36789;SDS011;22740;52.182;8.780;2023-05-25T07:30:44;17.63;;;8.55;;
36789;SDS011;22740;52.182;8.780;2023-05-25T07:36:46;16.77;;;8.88;;
36789;SDS011;22740;52.182;8.780;2023-05-25T07:42:48;17.58;;;7.88;;
36789;SDS011;22740;52.182;8.780;2023-05-25T07:48:50;19.13;;;8.13;;
36789;SDS011;22740;52.182;8.780;2023-05-25T07:54:52;14.80;;;7.80;;
36789;SDS011;22740;52.182;8.780;2023-05-25T08:00:54;20.45;;;8.90;;
36789;SDS011;22740;52.182;8.780;2023-05-25T08:06:56;15.95;;;9.10;;
36789;SDS011;22740;52.182;8.780;2023-05-25T08:12:58;18.58;;;8.20;;
36789;SDS011;22740;52.182;8.780;2023-05-25T08:19:00;11.77;;;7.43;;
36789;SDS011;22740;52.182;8.780;2023-05-25T08:25:02;14.88;;;7.85;;
36789;SDS011;22740;52.182;8.780;2023-05-25T08:31:06;16.33;;;8.07;;
36789;SDS011;22740;52.182;8.780;2023-05-25T08:37:08;19.30;;;8.30;;
36789;SDS011;22740;52.182;8.780;2023-05-25T08:43:10;14.40;;;7.47;;
36789;SDS011;22740;52.182;8.780;2023-05-25T08:49:13;16.83;;;8.15;;
36789;SDS011;22740;52.182;8.780;2023-05-25T08:55:15;15.35;;;8.32;;
36789;SDS011;22740;52.182;8.780;2023-05-25T09:01:20;14.23;;;7.88;;
36789;SDS011;22740;52.182;8.780;2023-05-25T09:07:23;15.45;;;8.82;;
36789;SDS011;22740;52.182;8.780;2023-05-25T09:13:27;17.98;;;9.85;;
36789;SDS011;22740;52.182;8.780;2023-05-25T09:19:29;21.13;;;10.27;;
36789;SDS011;22740;52.182;8.780;2023-05-25T09:25:31;21.23;;;11.13;;
36789;SDS011;22740;52.182;8.780;2023-05-25T09:31:34;22.90;;;13.48;;
36789;SDS011;22740;52.182;8.780;2023-05-25T09:37:36;26.95;;;14.55;;
36789;SDS011;22740;52.182;8.780;2023-05-25T09:43:39;26.58;;;15.07;;
36789;SDS011;22740;52.182;8.780;2023-05-25T09:49:54;24.75;;;16.15;;
36789;SDS011;22740;52.182;8.780;2023-05-25T09:55:57;20.83;;;15.13;;
36789;SDS011;22740;52.182;8.780;2023-05-25T10:02:04;31.33;;;16.08;;
36789;SDS011;22740;52.182;8.780;2023-05-25T10:08:07;19.90;;;12.40;;
36789;SDS011;22740;52.182;8.780;2023-05-25T10:14:11;19.83;;;12.10;;
36789;SDS011;22740;52.182;8.780;2023-05-25T10:20:20;18.83;;;11.60;;
36789;SDS011;22740;52.182;8.780;2023-05-25T10:26:26;21.05;;;10.98;;
36789;SDS011;22740;52.182;8.780;2023-05-25T10:32:35;19.77;;;11.02;;
36789;SDS011;22740;52.182;8.780;2023-05-25T10:38:38;19.15;;;12.57;;
36789;SDS011;22740;52.182;8.780;2023-05-25T10:44:40;19.25;;;11.45;;
36789;SDS011;22740;52.182;8.780;2023-05-25T10:50:48;18.42;;;12.45;;
36789;SDS011;22740;52.182;8.780;2023-05-25T11:09:57;21.70;;;11.98;;
36789;SDS011;22740;52.182;8.780;2023-05-25T11:22:42;13.00;;;8.70;;
36789;SDS011;22740;52.182;8.780;2023-05-25T11:28:44;20.92;;;8.55;;
36789;SDS011;22740;52.182;8.780;2023-05-25T11:34:47;17.50;;;8.45;;
36789;SDS011;22740;52.182;8.780;2023-05-25T11:40:49;16.40;;;7.65;;
36789;SDS011;22740;52.182;8.780;2023-05-25T11:46:52;11.85;;;6.88;;
36789;SDS011;22740;52.182;8.780;2023-05-25T11:52:57;15.77;;;7.55;;
36789;SDS011;22740;52.182;8.780;2023-05-25T11:58:59;12.68;;;7.35;;
36789;SDS011;22740;52.182;8.780;2023-05-25T12:05:01;15.57;;;7.53;;
36789;SDS011;22740;52.182;8.780;2023-05-25T12:11:04;9.77;;;6.75;;
36789;SDS011;22740;52.182;8.780;2023-05-25T12:17:06;11.18;;;6.25;;
36789;SDS011;22740;52.182;8.780;2023-05-25T12:23:08;13.80;;;6.03;;
36789;SDS011;22740;52.182;8.780;2023-05-25T12:29:10;13.57;;;6.15;;
36789;SDS011;22740;52.182;8.780;2023-05-25T12:35:12;12.10;;;5.07;;
36789;SDS011;22740;52.182;8.780;2023-05-25T12:41:15;8.43;;;4.00;;
36789;SDS011;22740;52.182;8.780;2023-05-25T12:47:18;10.93;;;3.95;;
36789;SDS011;22740;52.182;8.780;2023-05-25T12:53:23;13.07;;;4.03;;
36789;SDS011;22740;52.182;8.780;2023-05-25T12:59:25;10.00;;;3.83;;
36789;SDS011;22740;52.182;8.780;2023-05-25T13:05:31;11.10;;;3.53;;
36789;SDS011;22740;52.182;8.780;2023-05-25T13:11:34;10.90;;;3.15;;
36789;SDS011;22740;52.182;8.780;2023-05-25T13:17:36;11.70;;;3.25;;
36789;SDS011;22740;52.182;8.780;2023-05-25T13:23:38;11.02;;;4.03;;
36789;SDS011;22740;52.182;8.780;2023-05-25T13:29:40;15.05;;;4.20;;
36789;SDS011;22740;52.182;8.780;2023-05-25T13:35:42;16.02;;;4.40;;
36789;SDS011;22740;52.182;8.780;2023-05-25T13:42:01;16.27;;;4.25;;
36789;SDS011;22740;52.182;8.780;2023-05-25T13:48:03;10.98;;;3.35;;
36789;SDS011;22740;52.182;8.780;2023-05-25T13:54:05;18.35;;;3.80;;
36789;SDS011;22740;52.182;8.780;2023-05-25T14:00:07;16.98;;;4.45;;
36789;SDS011;22740;52.182;8.780;2023-05-25T14:06:09;17.05;;;3.83;;
36789;SDS011;22740;52.182;8.780;2023-05-25T14:12:15;15.35;;;3.80;;
36789;SDS011;22740;52.182;8.780;2023-05-25T14:18:17;13.75;;;3.47;;
36789;SDS011;22740;52.182;8.780;2023-05-25T14:24:19;16.50;;;3.33;;
36789;SDS011;22740;52.182;8.780;2023-05-25T14:30:21;16.20;;;3.50;;
36789;SDS011;22740;52.182;8.780;2023-05-25T14:36:23;13.35;;;3.75;;
36789;SDS011;22740;52.182;8.780;2023-05-25T14:42:25;20.13;;;3.72;;
36789;SDS011;22740;52.182;8.780;2023-05-25T14:48:27;13.30;;;3.63;;
36789;SDS011;22740;52.182;8.780;2023-05-25T14:54:30;11.35;;;3.53;;
36789;SDS011;22740;52.182;8.780;2023-05-25T15:00:31;14.98;;;3.55;;
36789;SDS011;22740;52.182;8.780;2023-05-25T15:06:34;12.88;;;3.38;;
36789;SDS011;22740;52.182;8.780;2023-05-25T15:12:37;18.25;;;4.35;;
36789;SDS011;22740;52.182;8.780;2023-05-25T15:18:39;17.65;;;3.78;;
36789;SDS011;22740;52.182;8.780;2023-05-25T15:24:41;20.02;;;4.53;;
36789;SDS011;22740;52.182;8.780;2023-05-25T15:30:43;13.82;;;3.35;;
36789;SDS011;22740;52.182;8.780;2023-05-25T15:36:45;17.27;;;4.00;;
36789;SDS011;22740;52.182;8.780;2023-05-25T15:42:48;15.73;;;4.10;;
36789;SDS011;22740;52.182;8.780;2023-05-25T15:48:50;17.75;;;4.22;;
36789;SDS011;22740;52.182;8.780;2023-05-25T15:54:53;17.40;;;3.67;;
36789;SDS011;22740;52.182;8.780;2023-05-25T16:00:55;19.80;;;3.88;;
36789;SDS011;22740;52.182;8.780;2023-05-25T16:06:57;17.17;;;4.07;;
36789;SDS011;22740;52.182;8.780;2023-05-25T16:13:01;12.73;;;3.10;;
36789;SDS011;22740;52.182;8.780;2023-05-25T16:19:04;17.80;;;4.40;;
36789;SDS011;22740;52.182;8.780;2023-05-25T16:25:06;17.95;;;4.03;;
36789;SDS011;22740;52.182;8.780;2023-05-25T16:31:08;23.80;;;4.88;;
36789;SDS011;22740;52.182;8.780;2023-05-25T16:37:12;16.02;;;4.05;;
36789;SDS011;22740;52.182;8.780;2023-05-25T16:43:14;21.60;;;5.10;;
36789;SDS011;22740;52.182;8.780;2023-05-25T16:49:16;18.85;;;4.18;;
36789;SDS011;22740;52.182;8.780;2023-05-25T16:55:18;20.42;;;4.43;;
36789;SDS011;22740;52.182;8.780;2023-05-25T17:01:19;21.70;;;4.65;;
36789;SDS011;22740;52.182;8.780;2023-05-25T17:07:22;15.77;;;4.20;;
36789;SDS011;22740;52.182;8.780;2023-05-25T17:13:25;21.63;;;5.93;;
36789;SDS011;22740;52.182;8.780;2023-05-25T17:19:28;19.70;;;4.38;;
36789;SDS011;22740;52.182;8.780;2023-05-25T17:25:29;18.30;;;4.00;;
36789;SDS011;22740;52.182;8.780;2023-05-25T17:31:34;23.38;;;4.68;;
36789;SDS011;22740;52.182;8.780;2023-05-25T17:37:36;17.65;;;4.05;;
36789;SDS011;22740;52.182;8.780;2023-05-25T17:43:38;19.83;;;4.22;;
36789;SDS011;22740;52.182;8.780;2023-05-25T17:49:40;21.42;;;4.65;;
36789;SDS011;22740;52.182;8.780;2023-05-25T17:55:42;20.52;;;4.50;;
36789;SDS011;22740;52.182;8.780;2023-05-25T18:01:45;15.15;;;4.22;;
36789;SDS011;22740;52.182;8.780;2023-05-25T18:07:47;18.15;;;4.18;;
36789;SDS011;22740;52.182;8.780;2023-05-25T18:13:49;25.73;;;5.38;;
36789;SDS011;22740;52.182;8.780;2023-05-25T18:19:52;18.15;;;4.55;;
36789;SDS011;22740;52.182;8.780;2023-05-25T18:25:54;28.60;;;4.90;;
36789;SDS011;22740;52.182;8.780;2023-05-25T18:31:56;22.73;;;5.63;;
36789;SDS011;22740;52.182;8.780;2023-05-25T18:37:58;26.70;;;5.22;;
36789;SDS011;22740;52.182;8.780;2023-05-25T18:44:00;28.90;;;5.63;;
36789;SDS011;22740;52.182;8.780;2023-05-25T18:50:02;26.98;;;5.65;;
36789;SDS011;22740;52.182;8.780;2023-05-25T18:56:04;19.73;;;4.88;;
36789;SDS011;22740;52.182;8.780;2023-05-25T19:02:06;26.33;;;5.30;;
36789;SDS011;22740;52.182;8.780;2023-05-25T19:08:08;28.05;;;5.22;;
36789;SDS011;22740;52.182;8.780;2023-05-25T19:14:10;21.70;;;4.32;;
36789;SDS011;22740;52.182;8.780;2023-05-25T19:20:14;25.45;;;4.10;;
36789;SDS011;22740;52.182;8.780;2023-05-25T19:26:17;24.25;;;5.18;;
36789;SDS011;22740;52.182;8.780;2023-05-25T19:32:20;25.92;;;4.75;;
36789;SDS011;22740;52.182;8.780;2023-05-25T19:38:22;21.20;;;4.88;;
36789;SDS011;22740;52.182;8.780;2023-05-25T19:44:29;21.17;;;5.78;;
36789;SDS011;22740;52.182;8.780;2023-05-25T19:50:34;20.30;;;4.07;;
36789;SDS011;22740;52.182;8.780;2023-05-25T19:56:36;20.92;;;4.53;;
36789;SDS011;22740;52.182;8.780;2023-05-25T20:02:38;19.23;;;4.22;;
36789;SDS011;22740;52.182;8.780;2023-05-25T20:08:40;30.52;;;5.10;;
36789;SDS011;22740;52.182;8.780;2023-05-25T20:14:42;25.70;;;4.28;;
36789;SDS011;22740;52.182;8.780;2023-05-25T20:20:44;32.17;;;4.70;;
36789;SDS011;22740;52.182;8.780;2023-05-25T20:26:46;24.45;;;4.30;;
36789;SDS011;22740;52.182;8.780;2023-05-25T20:32:48;20.92;;;3.45;;
36789;SDS011;22740;52.182;8.780;2023-05-25T20:38:50;21.90;;;4.75;;
36789;SDS011;22740;52.182;8.780;2023-05-25T20:44:51;28.52;;;5.18;;
36789;SDS011;22740;52.182;8.780;2023-05-25T20:50:53;22.17;;;4.00;;
36789;SDS011;22740;52.182;8.780;2023-05-25T20:56:55;23.52;;;4.35;;
36789;SDS011;22740;52.182;8.780;2023-05-25T21:02:57;19.27;;;3.30;;
36789;SDS011;22740;52.182;8.780;2023-05-25T21:08:59;26.63;;;4.95;;
36789;SDS011;22740;52.182;8.780;2023-05-25T21:15:01;21.48;;;4.07;;
36789;SDS011;22740;52.182;8.780;2023-05-25T21:21:04;19.70;;;3.67;;
36789;SDS011;22740;52.182;8.780;2023-05-25T21:27:05;24.58;;;3.95;;
36789;SDS011;22740;52.182;8.780;2023-05-25T21:33:07;23.73;;;3.85;;
36789;SDS011;22740;52.182;8.780;2023-05-25T21:39:09;21.23;;;4.47;;
36789;SDS011;22740;52.182;8.780;2023-05-25T21:45:11;19.02;;;3.72;;
36789;SDS011;22740;52.182;8.780;2023-05-25T21:51:13;21.95;;;3.83;;
36789;SDS011;22740;52.182;8.780;2023-05-25T21:57:17;21.17;;;3.53;;
36789;SDS011;22740;52.182;8.780;2023-05-25T22:03:18;18.13;;;3.83;;
36789;SDS011;22740;52.182;8.780;2023-05-25T22:09:21;16.67;;;3.42;;
36789;SDS011;22740;52.182;8.780;2023-05-25T22:15:23;23.13;;;4.13;;
36789;SDS011;22740;52.182;8.780;2023-05-25T22:21:25;21.58;;;3.90;;
36789;SDS011;22740;52.182;8.780;2023-05-25T22:27:27;30.33;;;4.07;;
36789;SDS011;22740;52.182;8.780;2023-05-25T22:33:29;20.58;;;3.40;;
36789;SDS011;22740;52.182;8.780;2023-05-25T22:39:31;23.20;;;4.68;;
36789;SDS011;22740;52.182;8.780;2023-05-25T22:45:33;21.13;;;4.30;;
36789;SDS011;22740;52.182;8.780;2023-05-25T22:51:35;23.23;;;3.50;;
36789;SDS011;22740;52.182;8.780;2023-05-25T22:57:37;18.13;;;3.47;;
36789;SDS011;22740;52.182;8.780;2023-05-25T23:03:39;23.13;;;3.97;;
36789;SDS011;22740;52.182;8.780;2023-05-25T23:09:42;28.83;;;4.88;;
36789;SDS011;22740;52.182;8.780;2023-05-25T23:15:44;29.67;;;4.10;;
36789;SDS011;22740;52.182;8.780;2023-05-25T23:21:48;19.20;;;4.30;;
36789;SDS011;22740;52.182;8.780;2023-05-25T23:27:50;26.58;;;4.72;;
36789;SDS011;22740;52.182;8.780;2023-05-25T23:33:51;28.67;;;4.00;;
36789;SDS011;22740;52.182;8.780;2023-05-25T23:39:53;27.83;;;4.35;;
36789;SDS011;22740;52.182;8.780;2023-05-25T23:45:55;27.48;;;4.32;;
36789;SDS011;22740;52.182;8.780;2023-05-25T23:51:57;27.25;;;4.38;;
36789;SDS011;22740;52.182;8.780;2023-05-25T23:57:59;29.08;;;4.40;;
